sensor_id;sensor_type;location;lat;lon;timestamp;pressure;altitude;pressure_sealevel;temperature;humidity
67373;BME280;54257;54.496;18.412;2023-04-15T00:02:16;99335.75;;;8.93;88.31
67373;BME280;54257;54.496;18.412;2023-04-15T00:04:45;99331.83;;;8.93;88.05
67373;BME280;54257;54.496;18.412;2023-04-15T00:07:13;99333.02;;;8.93;87.96
67373;BME280;54257;54.496;18.412;2023-04-15T00:09:41;99335.05;;;8.93;88.03
67373;BME280;54257;54.496;18.412;2023-04-15T00:12:08;99337.61;;;8.92;87.91
67373;BME280;54257;54.496;18.412;2023-04-15T00:14:35;99337.10;;;8.93;87.84
67373;BME280;54257;54.496;18.412;2023-04-15T00:17:03;99337.63;;;8.94;87.68
67373;BME280;54257;54.496;18.412;2023-04-15T00:19:31;99336.62;;;8.95;87.64
67373;BME280;54257;54.496;18.412;2023-04-15T00:21:59;99337.29;;;8.94;87.49
67373;BME280;54257;54.496;18.412;2023-04-15T00:24:33;99337.45;;;8.94;87.40
67373;BME280;54257;54.496;18.412;2023-04-15T00:27:00;99333.17;;;8.91;87.65
67373;BME280;54257;54.496;18.412;2023-04-15T00:29:27;99332.99;;;8.90;87.50
67373;BME280;54257;54.496;18.412;2023-04-15T00:31:55;99327.71;;;8.90;87.61
67373;BME280;54257;54.496;18.412;2023-04-15T00:34:25;99328.55;;;8.89;87.66
67373;BME280;54257;54.496;18.412;2023-04-15T00:36:53;99324.80;;;8.89;87.44
67373;BME280;54257;54.496;18.412;2023-04-15T00:39:21;99322.92;;;8.88;87.48
67373;BME280;54257;54.496;18.412;2023-04-15T00:41:48;99326.52;;;8.89;87.31
67373;BME280;54257;54.496;18.412;2023-04-15T00:44:16;99330.61;;;8.90;87.31
67373;BME280;54257;54.496;18.412;2023-04-15T00:46:46;99331.47;;;8.91;87.18
67373;BME280;54257;54.496;18.412;2023-04-15T00:49:14;99334.02;;;8.91;87.32
67373;BME280;54257;54.496;18.412;2023-04-15T00:51:41;99334.20;;;8.91;87.35
67373;BME280;54257;54.496;18.412;2023-04-15T00:54:08;99333.85;;;8.90;87.33
67373;BME280;54257;54.496;18.412;2023-04-15T00:56:37;99327.38;;;8.91;87.27
67373;BME280;54257;54.496;18.412;2023-04-15T00:59:05;99329.59;;;8.90;87.30
67373;BME280;54257;54.496;18.412;2023-04-15T01:01:34;99331.95;;;8.88;87.50
67373;BME280;54257;54.496;18.412;2023-04-15T01:04:02;99331.22;;;8.86;87.56
67373;BME280;54257;54.496;18.412;2023-04-15T01:06:32;99332.90;;;8.84;87.68
67373;BME280;54257;54.496;18.412;2023-04-15T01:08:59;99333.75;;;8.84;87.66
67373;BME280;54257;54.496;18.412;2023-04-15T01:11:27;99327.79;;;8.83;87.61
67373;BME280;54257;54.496;18.412;2023-04-15T01:13:57;99328.45;;;8.82;87.83
67373;BME280;54257;54.496;18.412;2023-04-15T01:16:24;99325.05;;;8.82;87.67
67373;BME280;54257;54.496;18.412;2023-04-15T01:18:52;99325.05;;;8.82;87.64
67373;BME280;54257;54.496;18.412;2023-04-15T01:21:19;99323.84;;;8.81;87.67
67373;BME280;54257;54.496;18.412;2023-04-15T01:23:47;99323.82;;;8.79;87.75
67373;BME280;54257;54.496;18.412;2023-04-15T01:26:16;99325.33;;;8.78;87.75
67373;BME280;54257;54.496;18.412;2023-04-15T01:28:43;99325.46;;;8.75;87.95
67373;BME280;54257;54.496;18.412;2023-04-15T01:31:13;99324.58;;;8.72;88.22
67373;BME280;54257;54.496;18.412;2023-04-15T01:33:41;99321.64;;;8.70;87.83
67373;BME280;54257;54.496;18.412;2023-04-15T01:36:09;99319.41;;;8.68;87.90
67373;BME280;54257;54.496;18.412;2023-04-15T01:38:37;99321.79;;;8.68;87.98
67373;BME280;54257;54.496;18.412;2023-04-15T01:41:04;99323.14;;;8.66;87.85
67373;BME280;54257;54.496;18.412;2023-04-15T01:43:34;99327.36;;;8.64;87.87
67373;BME280;54257;54.496;18.412;2023-04-15T01:46:02;99337.01;;;8.60;88.31
67373;BME280;54257;54.496;18.412;2023-04-15T01:48:29;99333.39;;;8.57;88.39
67373;BME280;54257;54.496;18.412;2023-04-15T01:50:58;99336.23;;;8.55;88.33
67373;BME280;54257;54.496;18.412;2023-04-15T01:53:25;99341.67;;;8.54;88.78
67373;BME280;54257;54.496;18.412;2023-04-15T01:55:52;99337.73;;;8.52;88.94
67373;BME280;54257;54.496;18.412;2023-04-15T01:58:19;99334.52;;;8.53;88.64
67373;BME280;54257;54.496;18.412;2023-04-15T02:00:48;99331.80;;;8.53;88.78
67373;BME280;54257;54.496;18.412;2023-04-15T02:03:15;99335.02;;;8.54;88.85
67373;BME280;54257;54.496;18.412;2023-04-15T02:05:42;99338.42;;;8.53;89.03
67373;BME280;54257;54.496;18.412;2023-04-15T02:08:09;99337.77;;;8.55;88.90
67373;BME280;54257;54.496;18.412;2023-04-15T02:10:37;99337.30;;;8.56;89.18
67373;BME280;54257;54.496;18.412;2023-04-15T02:13:04;99333.40;;;8.58;89.23
67373;BME280;54257;54.496;18.412;2023-04-15T02:15:31;99326.09;;;8.59;89.18
67373;BME280;54257;54.496;18.412;2023-04-15T02:18:00;99327.80;;;8.60;89.08
67373;BME280;54257;54.496;18.412;2023-04-15T02:20:28;99328.85;;;8.62;89.05
67373;BME280;54257;54.496;18.412;2023-04-15T02:22:56;99328.00;;;8.62;89.26
67373;BME280;54257;54.496;18.412;2023-04-15T02:25:24;99328.01;;;8.62;89.46
67373;BME280;54257;54.496;18.412;2023-04-15T02:27:51;99323.76;;;8.62;89.09
67373;BME280;54257;54.496;18.412;2023-04-15T02:30:19;99324.46;;;8.64;89.16
67373;BME280;54257;54.496;18.412;2023-04-15T02:32:46;99327.02;;;8.64;89.14
67373;BME280;54257;54.496;18.412;2023-04-15T02:35:14;99330.79;;;8.66;89.09
67373;BME280;54257;54.496;18.412;2023-04-15T02:37:42;99329.79;;;8.67;88.74
67373;BME280;54257;54.496;18.412;2023-04-15T02:40:11;99327.60;;;8.70;88.74
67373;BME280;54257;54.496;18.412;2023-04-15T02:42:39;99330.86;;;8.72;88.79
67373;BME280;54257;54.496;18.412;2023-04-15T02:45:07;99330.70;;;8.72;88.67
67373;BME280;54257;54.496;18.412;2023-04-15T02:47:34;99335.15;;;8.73;88.58
67373;BME280;54257;54.496;18.412;2023-04-15T02:50:27;99336.85;;;8.73;88.48
67373;BME280;54257;54.496;18.412;2023-04-15T02:52:54;99335.17;;;8.75;88.44
67373;BME280;54257;54.496;18.412;2023-04-15T02:55:22;99335.86;;;8.76;88.37
67373;BME280;54257;54.496;18.412;2023-04-15T02:57:49;99337.58;;;8.78;88.22
67373;BME280;54257;54.496;18.412;2023-04-15T03:00:19;99337.25;;;8.79;88.19
67373;BME280;54257;54.496;18.412;2023-04-15T03:02:46;99331.63;;;8.78;88.15
67373;BME280;54257;54.496;18.412;2023-04-15T03:05:15;99336.74;;;8.79;87.91
67373;BME280;54257;54.496;18.412;2023-04-15T03:07:42;99339.98;;;8.79;87.79
67373;BME280;54257;54.496;18.412;2023-04-15T03:10:09;99339.48;;;8.80;87.83
67373;BME280;54257;54.496;18.412;2023-04-15T03:12:36;99338.63;;;8.79;87.74
67373;BME280;54257;54.496;18.412;2023-04-15T03:15:04;99340.98;;;8.79;87.67
67373;BME280;54257;54.496;18.412;2023-04-15T03:17:31;99339.95;;;8.77;87.78
67373;BME280;54257;54.496;18.412;2023-04-15T03:20:01;99344.39;;;8.77;87.69
67373;BME280;54257;54.496;18.412;2023-04-15T03:22:31;99342.67;;;8.76;87.87
67373;BME280;54257;54.496;18.412;2023-04-15T03:24:58;99343.67;;;8.74;87.74
67373;BME280;54257;54.496;18.412;2023-04-15T03:27:25;99344.00;;;8.74;87.90
67373;BME280;54257;54.496;18.412;2023-04-15T03:29:52;99346.86;;;8.71;88.12
67373;BME280;54257;54.496;18.412;2023-04-15T03:32:19;99352.28;;;8.70;88.24
67373;BME280;54257;54.496;18.412;2023-04-15T03:34:46;99353.27;;;8.67;88.39
67373;BME280;54257;54.496;18.412;2023-04-15T03:37:13;99353.77;;;8.65;88.63
67373;BME280;54257;54.496;18.412;2023-04-15T03:39:40;99354.63;;;8.65;88.51
67373;BME280;54257;54.496;18.412;2023-04-15T03:42:07;99356.64;;;8.64;88.82
67373;BME280;54257;54.496;18.412;2023-04-15T03:44:36;99356.31;;;8.64;88.67
67373;BME280;54257;54.496;18.412;2023-04-15T03:47:04;99357.68;;;8.65;88.63
67373;BME280;54257;54.496;18.412;2023-04-15T03:49:31;99358.35;;;8.64;88.90
67373;BME280;54257;54.496;18.412;2023-04-15T03:51:58;99356.08;;;8.62;89.11
67373;BME280;54257;54.496;18.412;2023-04-15T03:54:25;99354.38;;;8.61;88.79
67373;BME280;54257;54.496;18.412;2023-04-15T03:56:52;99354.55;;;8.62;88.87
67373;BME280;54257;54.496;18.412;2023-04-15T03:59:19;99357.45;;;8.63;89.11
67373;BME280;54257;54.496;18.412;2023-04-15T04:01:46;99356.08;;;8.61;89.39
67373;BME280;54257;54.496;18.412;2023-04-15T04:04:14;99356.06;;;8.60;89.01
67373;BME280;54257;54.496;18.412;2023-04-15T04:06:41;99357.77;;;8.60;89.20
67373;BME280;54257;54.496;18.412;2023-04-15T04:09:08;99357.58;;;8.59;89.45
67373;BME280;54257;54.496;18.412;2023-04-15T04:11:35;99360.11;;;8.56;89.66
67373;BME280;54257;54.496;18.412;2023-04-15T04:14:03;99361.64;;;8.56;89.61
67373;BME280;54257;54.496;18.412;2023-04-15T04:16:30;99360.95;;;8.56;89.70
67373;BME280;54257;54.496;18.412;2023-04-15T04:18:57;99360.09;;;8.55;89.80
67373;BME280;54257;54.496;18.412;2023-04-15T04:21:24;99357.86;;;8.54;90.01
67373;BME280;54257;54.496;18.412;2023-04-15T04:23:52;99360.10;;;8.56;89.79
67373;BME280;54257;54.496;18.412;2023-04-15T04:26:19;99362.31;;;8.56;90.04
67373;BME280;54257;54.496;18.412;2023-04-15T04:28:46;99359.90;;;8.55;90.15
67373;BME280;54257;54.496;18.412;2023-04-15T04:31:13;99362.97;;;8.55;90.23
67373;BME280;54257;54.496;18.412;2023-04-15T04:33:40;99363.64;;;8.54;90.36
67373;BME280;54257;54.496;18.412;2023-04-15T04:36:07;99362.75;;;8.52;90.44
67373;BME280;54257;54.496;18.412;2023-04-15T04:38:34;99363.70;;;8.58;90.29
67373;BME280;54257;54.496;18.412;2023-04-15T04:41:01;99359.96;;;8.58;90.67
67373;BME280;54257;54.496;18.412;2023-04-15T04:43:28;99359.11;;;8.58;90.32
67373;BME280;54257;54.496;18.412;2023-04-15T04:45:56;99364.90;;;8.59;90.40
67373;BME280;54257;54.496;18.412;2023-04-15T04:48:23;99365.94;;;8.60;90.45
67373;BME280;54257;54.496;18.412;2023-04-15T04:50:51;99367.79;;;8.58;90.56
67373;BME280;54257;54.496;18.412;2023-04-15T04:53:18;99369.45;;;8.55;90.70
67373;BME280;54257;54.496;18.412;2023-04-15T04:55:45;99369.94;;;8.55;90.72
67373;BME280;54257;54.496;18.412;2023-04-15T04:58:12;99369.42;;;8.54;90.91
67373;BME280;54257;54.496;18.412;2023-04-15T05:00:39;99367.90;;;8.54;90.72
67373;BME280;54257;54.496;18.412;2023-04-15T05:03:07;99373.71;;;8.55;90.92
67373;BME280;54257;54.496;18.412;2023-04-15T05:05:34;99376.08;;;8.55;90.94
67373;BME280;54257;54.496;18.412;2023-04-15T05:08:04;99372.02;;;8.56;90.81
67373;BME280;54257;54.496;18.412;2023-04-15T05:10:31;99375.92;;;8.56;90.99
67373;BME280;54257;54.496;18.412;2023-04-15T05:12:58;99376.75;;;8.55;91.06
67373;BME280;54257;54.496;18.412;2023-04-15T05:15:25;99376.27;;;8.55;90.95
67373;BME280;54257;54.496;18.412;2023-04-15T05:17:52;99377.82;;;8.57;91.14
67373;BME280;54257;54.496;18.412;2023-04-15T05:20:19;99377.82;;;8.57;91.07
67373;BME280;54257;54.496;18.412;2023-04-15T05:22:46;99373.21;;;8.57;91.01
67373;BME280;54257;54.496;18.412;2023-04-15T05:25:13;99374.45;;;8.59;90.96
67373;BME280;54257;54.496;18.412;2023-04-15T05:27:41;99377.55;;;8.63;90.98
67373;BME280;54257;54.496;18.412;2023-04-15T05:30:09;99379.44;;;8.63;91.05
67373;BME280;54257;54.496;18.412;2023-04-15T05:32:36;99377.73;;;8.63;90.95
67373;BME280;54257;54.496;18.412;2023-04-15T05:35:04;99376.05;;;8.63;91.02
67373;BME280;54257;54.496;18.412;2023-04-15T05:37:31;99375.89;;;8.64;91.03
67373;BME280;54257;54.496;18.412;2023-04-15T05:39:58;99375.74;;;8.66;90.90
67373;BME280;54257;54.496;18.412;2023-04-15T05:42:26;99379.17;;;8.69;90.82
67373;BME280;54257;54.496;18.412;2023-04-15T05:44:54;99383.76;;;8.68;90.82
67373;BME280;54257;54.496;18.412;2023-04-15T05:47:21;99377.64;;;8.68;90.58
67373;BME280;54257;54.496;18.412;2023-04-15T05:49:48;99380.17;;;8.66;90.88
67373;BME280;54257;54.496;18.412;2023-04-15T05:52:15;99382.73;;;8.68;90.59
67373;BME280;54257;54.496;18.412;2023-04-15T05:54:43;99385.14;;;8.69;90.55
67373;BME280;54257;54.496;18.412;2023-04-15T05:57:18;99385.13;;;8.69;90.73
67373;BME280;54257;54.496;18.412;2023-04-15T05:59:47;99377.80;;;8.68;90.47
67373;BME280;54257;54.496;18.412;2023-04-15T06:02:15;99382.93;;;8.70;90.50
67373;BME280;54257;54.496;18.412;2023-04-15T06:04:43;99386.23;;;8.73;90.29
67373;BME280;54257;54.496;18.412;2023-04-15T06:07:11;99385.23;;;8.75;90.17
67373;BME280;54257;54.496;18.412;2023-04-15T06:09:38;99385.92;;;8.77;90.14
67373;BME280;54257;54.496;18.412;2023-04-15T06:12:05;99388.32;;;8.78;90.06
67373;BME280;54257;54.496;18.412;2023-04-15T06:14:37;99391.04;;;8.77;90.07
67373;BME280;54257;54.496;18.412;2023-04-15T06:17:06;99390.37;;;8.78;89.87
67373;BME280;54257;54.496;18.412;2023-04-15T06:19:34;99388.38;;;8.81;89.87
67373;BME280;54257;54.496;18.412;2023-04-15T06:22:05;99390.28;;;8.84;89.60
67373;BME280;54257;54.496;18.412;2023-04-15T06:24:33;99394.73;;;8.85;89.58
67373;BME280;54257;54.496;18.412;2023-04-15T06:27:02;99389.18;;;8.89;89.58
67373;BME280;54257;54.496;18.412;2023-04-15T06:29:30;99392.77;;;8.91;89.48
67373;BME280;54257;54.496;18.412;2023-04-15T06:31:58;99393.64;;;8.93;89.48
67373;BME280;54257;54.496;18.412;2023-04-15T06:34:25;99394.05;;;8.96;89.27
67373;BME280;54257;54.496;18.412;2023-04-15T06:36:53;99391.18;;;8.98;89.05
67373;BME280;54257;54.496;18.412;2023-04-15T06:39:20;99393.63;;;9.03;88.85
67373;BME280;54257;54.496;18.412;2023-04-15T06:41:47;99394.17;;;9.06;88.43
67373;BME280;54257;54.496;18.412;2023-04-15T06:44:15;99398.11;;;9.07;88.24
67373;BME280;54257;54.496;18.412;2023-04-15T06:46:43;99404.26;;;9.08;87.92
67373;BME280;54257;54.496;18.412;2023-04-15T06:49:10;99398.98;;;9.10;87.92
67373;BME280;54257;54.496;18.412;2023-04-15T06:51:38;99403.80;;;9.13;87.86
67373;BME280;54257;54.496;18.412;2023-04-15T06:54:05;99405.36;;;9.15;87.69
67373;BME280;54257;54.496;18.412;2023-04-15T06:56:32;99405.90;;;9.17;87.44
67373;BME280;54257;54.496;18.412;2023-04-15T06:58:59;99405.61;;;9.21;87.32
67373;BME280;54257;54.496;18.412;2023-04-15T07:01:27;99407.52;;;9.23;87.04
67373;BME280;54257;54.496;18.412;2023-04-15T07:03:54;99405.67;;;9.25;87.01
67373;BME280;54257;54.496;18.412;2023-04-15T07:06:21;99405.70;;;9.28;86.65
67373;BME280;54257;54.496;18.412;2023-04-15T07:08:48;99414.61;;;9.32;86.66
67373;BME280;54257;54.496;18.412;2023-04-15T07:11:19;99416.69;;;9.35;86.65
67373;BME280;54257;54.496;18.412;2023-04-15T07:13:46;99420.16;;;9.39;86.68
67373;BME280;54257;54.496;18.412;2023-04-15T07:16:13;99421.55;;;9.42;86.59
67373;BME280;54257;54.496;18.412;2023-04-15T07:18:41;99425.51;;;9.44;86.27
67373;BME280;54257;54.496;18.412;2023-04-15T07:21:08;99421.95;;;9.45;86.07
67373;BME280;54257;54.496;18.412;2023-04-15T07:23:38;99423.50;;;9.47;86.05
67373;BME280;54257;54.496;18.412;2023-04-15T07:26:05;99418.41;;;9.50;85.94
67373;BME280;54257;54.496;18.412;2023-04-15T07:28:32;99422.02;;;9.52;86.06
67373;BME280;54257;54.496;18.412;2023-04-15T07:30:59;99420.89;;;9.57;85.96
67373;BME280;54257;54.496;18.412;2023-04-15T07:33:26;99423.17;;;9.62;85.80
67373;BME280;54257;54.496;18.412;2023-04-15T07:35:54;99420.67;;;9.67;85.67
67373;BME280;54257;54.496;18.412;2023-04-15T07:38:21;99422.45;;;9.74;85.33
67373;BME280;54257;54.496;18.412;2023-04-15T07:40:51;99417.89;;;9.78;84.82
67373;BME280;54257;54.496;18.412;2023-04-15T07:43:18;99417.60;;;9.83;85.06
67373;BME280;54257;54.496;18.412;2023-04-15T07:46:07;99422.43;;;9.89;84.39
67373;BME280;54257;54.496;18.412;2023-04-15T07:48:37;99427.60;;;9.94;84.25
67373;BME280;54257;54.496;18.412;2023-04-15T07:51:05;99424.94;;;10.00;83.83
67373;BME280;54257;54.496;18.412;2023-04-15T07:53:32;99427.04;;;10.04;83.68
67373;BME280;54257;54.496;18.412;2023-04-15T07:55:59;99431.37;;;10.12;83.44
67373;BME280;54257;54.496;18.412;2023-04-15T07:58:26;99432.02;;;10.23;83.20
67373;BME280;54257;54.496;18.412;2023-04-15T08:00:56;99430.46;;;10.39;82.88
67373;BME280;54257;54.496;18.412;2023-04-15T08:03:24;99425.46;;;10.54;82.63
67373;BME280;54257;54.496;18.412;2023-04-15T08:05:55;99428.80;;;10.67;82.08
67373;BME280;54257;54.496;18.412;2023-04-15T08:08:22;99429.70;;;10.75;81.13
67373;BME280;54257;54.496;18.412;2023-04-15T08:10:51;99424.96;;;10.81;80.98
67373;BME280;54257;54.496;18.412;2023-04-15T08:13:19;99428.61;;;10.89;80.63
67373;BME280;54257;54.496;18.412;2023-04-15T08:16:12;99425.23;;;10.93;79.30
67373;BME280;54257;54.496;18.412;2023-04-15T08:18:41;99418.29;;;11.04;79.65
67373;BME280;54257;54.496;18.412;2023-04-15T08:21:10;99421.24;;;11.14;79.03
67373;BME280;54257;54.496;18.412;2023-04-15T08:23:38;99418.54;;;11.19;78.18
67373;BME280;54257;54.496;18.412;2023-04-15T08:26:05;99419.25;;;11.24;77.84
67373;BME280;54257;54.496;18.412;2023-04-15T08:28:37;99420.45;;;11.28;77.83
67373;BME280;54257;54.496;18.412;2023-04-15T08:31:05;99421.01;;;11.36;77.34
67373;BME280;54257;54.496;18.412;2023-04-15T08:33:33;99421.52;;;11.38;76.56
67373;BME280;54257;54.496;18.412;2023-04-15T08:36:00;99425.11;;;11.37;76.56
67373;BME280;54257;54.496;18.412;2023-04-15T08:38:27;99424.95;;;11.39;76.54
67373;BME280;54257;54.496;18.412;2023-04-15T08:40:54;99426.52;;;11.42;76.69
67373;BME280;54257;54.496;18.412;2023-04-15T08:43:27;99432.52;;;11.47;76.29
67373;BME280;54257;54.496;18.412;2023-04-15T08:45:57;99428.60;;;11.48;75.87
67373;BME280;54257;54.496;18.412;2023-04-15T08:48:28;99428.95;;;11.52;76.25
67373;BME280;54257;54.496;18.412;2023-04-15T08:50:55;99432.52;;;11.48;75.15
67373;BME280;54257;54.496;18.412;2023-04-15T08:53:23;99429.60;;;11.44;75.49
67373;BME280;54257;54.496;18.412;2023-04-15T08:55:56;99434.73;;;11.44;75.85
67373;BME280;54257;54.496;18.412;2023-04-15T08:58:33;99430.80;;;11.43;76.06
67373;BME280;54257;54.496;18.412;2023-04-15T09:01:01;99434.57;;;11.46;76.64
67373;BME280;54257;54.496;18.412;2023-04-15T09:03:29;99434.07;;;11.49;76.09
67373;BME280;54257;54.496;18.412;2023-04-15T09:05:58;99436.10;;;11.47;75.96
67373;BME280;54257;54.496;18.412;2023-04-15T09:08:29;99428.40;;;11.44;75.80
67373;BME280;54257;54.496;18.412;2023-04-15T09:10:56;99432.17;;;11.43;75.67
67373;BME280;54257;54.496;18.412;2023-04-15T09:13:23;99434.23;;;11.42;75.68
67373;BME280;54257;54.496;18.412;2023-04-15T09:15:52;99438.80;;;11.39;75.61
67373;BME280;54257;54.496;18.412;2023-04-15T09:18:29;99437.44;;;11.37;76.01
67373;BME280;54257;54.496;18.412;2023-04-15T09:21:06;99439.16;;;11.40;75.90
67373;BME280;54257;54.496;18.412;2023-04-15T09:23:35;99441.53;;;11.37;75.76
67373;BME280;54257;54.496;18.412;2023-04-15T09:26:03;99440.48;;;11.33;75.58
67373;BME280;54257;54.496;18.412;2023-04-15T09:28:30;99439.79;;;11.30;75.99
67373;BME280;54257;54.496;18.412;2023-04-15T09:30:58;99439.61;;;11.30;76.29
67373;BME280;54257;54.496;18.412;2023-04-15T09:33:28;99438.23;;;11.27;76.20
67373;BME280;54257;54.496;18.412;2023-04-15T09:35:59;99440.77;;;11.22;76.37
67373;BME280;54257;54.496;18.412;2023-04-15T09:38:27;99440.60;;;11.21;76.52
67373;BME280;54257;54.496;18.412;2023-04-15T09:40:57;99447.56;;;11.15;76.21
67373;BME280;54257;54.496;18.412;2023-04-15T09:43:38;99444.80;;;11.08;76.42
67373;BME280;54257;54.496;18.412;2023-04-15T09:46:07;99443.91;;;11.03;76.69
67373;BME280;54257;54.496;18.412;2023-04-15T09:48:35;99446.95;;;10.98;76.95
67373;BME280;54257;54.496;18.412;2023-04-15T09:51:03;99450.02;;;10.94;77.11
67373;BME280;54257;54.496;18.412;2023-04-15T09:53:34;99448.99;;;10.94;77.39
67373;BME280;54257;54.496;18.412;2023-04-15T09:56:03;99450.17;;;10.93;77.36
67373;BME280;54257;54.496;18.412;2023-04-15T09:58:34;99456.48;;;10.91;77.24
67373;BME280;54257;54.496;18.412;2023-04-15T10:01:04;99457.64;;;10.87;77.28
67373;BME280;54257;54.496;18.412;2023-04-15T10:03:34;99454.73;;;10.86;77.55
67373;BME280;54257;54.496;18.412;2023-04-15T10:06:03;99458.98;;;10.83;77.59
67373;BME280;54257;54.496;18.412;2023-04-15T10:08:33;99456.58;;;10.81;78.10
67373;BME280;54257;54.496;18.412;2023-04-15T10:11:03;99457.27;;;10.82;78.08
67373;BME280;54257;54.496;18.412;2023-04-15T10:13:32;99457.61;;;10.82;78.16
67373;BME280;54257;54.496;18.412;2023-04-15T10:18:33;99455.11;;;10.91;78.40
67373;BME280;54257;54.496;18.412;2023-04-15T10:21:00;99453.44;;;10.97;78.32
67373;BME280;54257;54.496;18.412;2023-04-15T10:23:27;99455.71;;;11.05;78.40
67373;BME280;54257;54.496;18.412;2023-04-15T10:25:54;99454.23;;;11.15;78.58
67373;BME280;54257;54.496;18.412;2023-04-15T10:28:23;99449.70;;;11.26;77.99
67373;BME280;54257;54.496;18.412;2023-04-15T10:30:51;99449.75;;;11.37;78.05
67373;BME280;54257;54.496;18.412;2023-04-15T10:33:21;99448.77;;;11.47;77.15
67373;BME280;54257;54.496;18.412;2023-04-15T10:35:50;99450.48;;;11.52;76.92
67373;BME280;54257;54.496;18.412;2023-04-15T10:38:35;99449.98;;;11.53;76.29
67373;BME280;54257;54.496;18.412;2023-04-15T10:41:21;99453.06;;;11.52;76.38
67373;BME280;54257;54.496;18.412;2023-04-15T10:46:22;99446.56;;;11.52;76.08
67373;BME280;54257;54.496;18.412;2023-04-15T10:48:53;99448.45;;;11.53;75.86
67373;BME280;54257;54.496;18.412;2023-04-15T10:51:29;99450.67;;;11.52;75.69
67373;BME280;54257;54.496;18.412;2023-04-15T10:54:00;99452.21;;;11.51;75.75
67373;BME280;54257;54.496;18.412;2023-04-15T10:56:28;99451.02;;;11.49;75.59
67373;BME280;54257;54.496;18.412;2023-04-15T10:58:58;99447.73;;;11.47;75.85
67373;BME280;54257;54.496;18.412;2023-04-15T11:02:04;99445.68;;;11.47;75.85
67373;BME280;54257;54.496;18.412;2023-04-15T11:04:54;99451.63;;;11.38;75.70
67373;BME280;54257;54.496;18.412;2023-04-15T11:07:36;99455.19;;;11.32;76.02
67373;BME280;54257;54.496;18.412;2023-04-15T11:12:44;99452.14;;;11.36;76.49
67373;BME280;54257;54.496;18.412;2023-04-15T11:18:15;99454.40;;;11.46;76.10
67373;BME280;54257;54.496;18.412;2023-04-15T11:23:14;99455.98;;;11.51;75.42
67373;BME280;54257;54.496;18.412;2023-04-15T11:25:43;99458.02;;;11.50;75.41
67373;BME280;54257;54.496;18.412;2023-04-15T11:28:11;99458.71;;;11.51;75.63
67373;BME280;54257;54.496;18.412;2023-04-15T11:30:39;99459.73;;;11.49;75.36
67373;BME280;54257;54.496;18.412;2023-04-15T11:33:09;99461.77;;;11.48;75.50
67373;BME280;54257;54.496;18.412;2023-04-15T11:35:40;99462.65;;;11.52;75.58
67373;BME280;54257;54.496;18.412;2023-04-15T11:38:09;99466.23;;;11.53;75.60
67373;BME280;54257;54.496;18.412;2023-04-15T11:40:37;99467.61;;;11.54;75.45
67373;BME280;54257;54.496;18.412;2023-04-15T11:45:55;99471.55;;;11.55;75.55
67373;BME280;54257;54.496;18.412;2023-04-15T11:48:31;99470.54;;;11.58;75.78
67373;BME280;54257;54.496;18.412;2023-04-15T11:51:06;99476.88;;;11.62;75.66
67373;BME280;54257;54.496;18.412;2023-04-15T11:53:44;99477.08;;;11.66;75.68
67373;BME280;54257;54.496;18.412;2023-04-15T11:58:44;99476.60;;;11.73;75.51
67373;BME280;54257;54.496;18.412;2023-04-15T12:01:12;99481.05;;;11.77;74.92
67373;BME280;54257;54.496;18.412;2023-04-15T12:09:03;99487.70;;;12.09;75.06
67373;BME280;54257;54.496;18.412;2023-04-15T12:14:04;99487.52;;;12.10;74.28
67373;BME280;54257;54.496;18.412;2023-04-15T12:16:41;99490.44;;;12.10;74.17
67373;BME280;54257;54.496;18.412;2023-04-15T12:19:11;99489.92;;;12.09;74.03
67373;BME280;54257;54.496;18.412;2023-04-15T12:21:43;99489.42;;;12.13;74.20
67373;BME280;54257;54.496;18.412;2023-04-15T12:24:11;99490.28;;;12.20;74.19
67373;BME280;54257;54.496;18.412;2023-04-15T12:29:16;99486.20;;;12.24;73.33
67373;BME280;54257;54.496;18.412;2023-04-15T12:34:15;99489.77;;;12.21;73.57
67373;BME280;54257;54.496;18.412;2023-04-15T12:36:43;99495.78;;;12.23;73.76
67373;BME280;54257;54.496;18.412;2023-04-15T12:39:11;99503.31;;;12.26;73.55
67373;BME280;54257;54.496;18.412;2023-04-15T12:41:38;99503.48;;;12.25;73.17
67373;BME280;54257;54.496;18.412;2023-04-15T12:44:06;99503.64;;;12.20;73.13
67373;BME280;54257;54.496;18.412;2023-04-15T12:46:33;99513.40;;;12.19;73.48
67373;BME280;54257;54.496;18.412;2023-04-15T12:49:01;99506.89;;;12.16;73.27
67373;BME280;54257;54.496;18.412;2023-04-15T12:51:28;99511.67;;;12.09;73.39
67373;BME280;54257;54.496;18.412;2023-04-15T12:53:57;99509.44;;;12.09;73.69
67373;BME280;54257;54.496;18.412;2023-04-15T12:56:24;99509.13;;;12.15;73.87
67373;BME280;54257;54.496;18.412;2023-04-15T12:58:52;99509.15;;;12.31;73.94
67373;BME280;54257;54.496;18.412;2023-04-15T13:01:20;99512.27;;;12.45;73.30
67373;BME280;54257;54.496;18.412;2023-04-15T13:03:47;99516.38;;;12.47;72.78
67373;BME280;54257;54.496;18.412;2023-04-15T13:06:17;99517.91;;;12.43;72.87
67373;BME280;54257;54.496;18.412;2023-04-15T13:08:48;99518.08;;;12.37;72.64
67373;BME280;54257;54.496;18.412;2023-04-15T13:11:15;99518.57;;;12.29;72.88
67373;BME280;54257;54.496;18.412;2023-04-15T13:13:47;99527.45;;;12.20;73.14
67373;BME280;54257;54.496;18.412;2023-04-15T13:16:14;99525.36;;;12.08;73.23
67373;BME280;54257;54.496;18.412;2023-04-15T13:18:47;99523.77;;;11.97;73.34
67373;BME280;54257;54.496;18.412;2023-04-15T13:21:14;99532.45;;;11.85;73.57
67373;BME280;54257;54.496;18.412;2023-04-15T13:23:42;99529.80;;;11.72;73.96
67373;BME280;54257;54.496;18.412;2023-04-15T13:26:09;99530.60;;;11.63;74.49
67373;BME280;54257;54.496;18.412;2023-04-15T13:28:36;99529.02;;;11.52;74.85
67373;BME280;54257;54.496;18.412;2023-04-15T13:31:04;99530.16;;;11.44;75.16
67373;BME280;54257;54.496;18.412;2023-04-15T13:33:39;99528.41;;;11.39;75.54
67373;BME280;54257;54.496;18.412;2023-04-15T13:36:07;99529.25;;;11.34;75.56